Time;durP1;ratioP1;P1;durP2;ratioP2;P2;SDS_P1;SDS_P2;PMS_P1;PMS_P2;Temp;Humidity;BMP_temperature;BMP_pressure;BME280_temperature;BME280_humidity;BME280_pressure;Samples;Min_cycle;Max_cycle;Signal;HPM_P1;HPM_P2
2022/05/25 03:08:13;;;;;;;1.70;1.23;;;14.30;99.90;;;;;;5045907;22;20144;-65
2022/05/25 03:10:38;;;;;;;3.83;0.70;;;14.40;99.90;;;;;;5031753;28;20041;-65
2022/05/25 03:13:09;;;;;;;2.10;1.20;;;14.40;99.90;;;;;;5031359;28;20041;-65
2022/05/25 03:15:35;;;;;;;2.42;0.63;;;14.30;99.90;;;;;;5031972;28;20030;-65
2022/05/25 03:18:01;;;;;;;5.22;1.15;;;14.30;99.90;;;;;;5031220;28;20212;-65
2022/05/25 03:20:27;;;;;;;3.67;0.80;;;14.20;99.90;;;;;;5031411;28;20129;-65
2022/05/25 03:22:53;;;;;;;6.65;1.83;;;14.10;99.90;;;;;;5031167;28;20041;-66
2022/05/25 03:25:19;;;;;;;1.35;0.70;;;14.00;99.90;;;;;;5031689;28;20034;-66
2022/05/25 03:27:45;;;;;;;3.47;0.70;;;14.10;99.90;;;;;;5031686;28;20045;-66
2022/05/25 03:30:13;;;;;;;3.00;1.13;;;14.00;99.90;;;;;;5031049;28;20344;-65
2022/05/25 03:32:39;;;;;;;3.40;1.20;;;14.00;99.90;;;;;;5031396;28;20174;-66
2022/05/25 03:35:06;;;;;;;2.40;0.93;;;14.00;99.90;;;;;;5030884;28;20025;-66
2022/05/25 03:37:32;;;;;;;1.60;0.90;;;13.90;99.90;;;;;;5031437;28;20040;-66
2022/05/25 03:39:58;;;;;;;2.53;1.08;;;13.80;99.90;;;;;;5030522;28;20124;-66
2022/05/25 03:42:24;;;;;;;4.90;1.05;;;13.80;99.90;;;;;;5031008;28;20120;-66
2022/05/25 03:44:49;;;;;;;2.83;0.80;;;13.80;99.90;;;;;;5031371;28;20037;-65
2022/05/25 03:47:16;;;;;;;2.97;1.05;;;13.90;99.90;;;;;;5030478;28;20066;-66
2022/05/25 03:49:41;;;;;;;6.60;1.33;;;13.90;99.90;;;;;;5013342;28;20335;-65
2022/05/25 03:52:07;;;;;;;5.18;1.10;;;13.60;99.90;;;;;;5030618;28;20042;-65
2022/05/25 03:54:36;;;;;;;4.35;1.17;;;13.60;99.90;;;;;;5031598;28;20045;-70
2022/05/25 03:57:03;;;;;;;2.92;1.13;;;13.60;99.90;;;;;;5030942;28;20434;-66
2022/05/25 03:59:29;;;;;;;3.08;0.98;;;13.60;99.90;;;;;;5031324;28;20091;-65
2022/05/25 04:01:55;;;;;;;4.70;1.63;;;13.60;99.90;;;;;;5012972;28;20037;-66
2022/05/25 04:04:20;;;;;;;2.42;1.52;;;13.70;99.90;;;;;;5013658;28;20471;-66
2022/05/25 04:06:46;;;;;;;5.95;1.25;;;13.80;99.90;;;;;;5031195;28;20454;-67
2022/05/25 04:09:12;;;;;;;2.90;1.20;;;13.70;99.90;;;;;;5030881;28;20069;-66
2022/05/25 04:11:42;;;;;;;1.80;1.05;;;13.80;99.90;;;;;;5031075;28;20095;-65
2022/05/25 04:14:07;;;;;;;5.13;1.80;;;13.90;99.90;;;;;;5012536;28;20099;-66
2022/05/25 04:16:33;;;;;;;5.28;1.30;;;14.00;99.90;;;;;;5030972;28;20037;-66
2022/05/25 04:18:59;;;;;;;1.65;1.30;;;14.00;99.90;;;;;;5012276;28;20186;-66
2022/05/25 04:21:25;;;;;;;4.70;1.50;;;13.90;99.90;;;;;;5030504;28;20462;-66
2022/05/25 04:23:51;;;;;;;1.67;1.05;;;14.00;99.90;;;;;;5013096;28;20041;-65
2022/05/25 04:26:17;;;;;;;4.20;1.10;;;14.00;99.90;;;;;;5030364;28;20033;-66
2022/05/25 04:28:42;;;;;;;5.18;1.63;;;14.10;99.90;;;;;;5013123;28;20037;-65
2022/05/25 04:31:09;;;;;;;4.95;1.38;;;14.20;99.90;;;;;;5029805;28;20030;-65
2022/05/25 04:33:36;;;;;;;2.80;1.35;;;14.30;99.90;;;;;;5030840;28;20029;-65
2022/05/25 04:36:03;;;;;;;3.45;1.17;;;14.30;99.90;;;;;;5030445;28;20041;-65
2022/05/25 04:38:29;;;;;;;5.38;1.98;;;14.30;99.90;;;;;;5030910;28;20034;-65
2022/05/25 04:40:54;;;;;;;2.45;1.00;;;14.40;99.90;;;;;;5030819;28;20038;-66
2022/05/25 04:43:22;;;;;;;4.68;1.50;;;14.50;99.90;;;;;;5029979;28;20099;-66
2022/05/25 04:45:49;;;;;;;5.55;1.88;;;14.50;99.90;;;;;;5030821;28;20038;-66
2022/05/25 04:48:16;;;;;;;5.07;2.15;;;14.60;99.90;;;;;;5012376;28;20427;-66
2022/05/25 04:50:45;;;;;;;6.18;1.23;;;14.60;99.90;;;;;;5012829;28;20056;-66
2022/05/25 04:53:12;;;;;;;2.40;1.23;;;14.70;99.90;;;;;;5032918;28;20056;-66
2022/05/25 04:58:25;;;;;;;9.07;2.53;;;14.70;99.90;;;;;;5034672;28;20394;-66
2022/05/25 05:00:52;;;;;;;4.55;1.50;;;14.90;99.90;;;;;;5034299;28;20092;-66
2022/05/25 05:03:19;;;;;;;3.80;1.27;;;14.90;99.90;;;;;;5016018;28;20053;-66
2022/05/25 05:05:45;;;;;;;3.45;1.42;;;14.60;99.90;;;;;;5034195;28;20041;-66
2022/05/25 05:08:11;;;;;;;2.40;1.45;;;14.60;99.90;;;;;;5015418;28;20049;-66
2022/05/25 05:10:37;;;;;;;1.75;1.50;;;14.60;99.90;;;;;;5016275;28;20048;-66
2022/05/25 05:13:04;;;;;;;3.00;1.70;;;14.70;99.90;;;;;;5033716;28;20077;-66
2022/05/25 05:15:33;;;;;;;6.10;1.92;;;14.70;99.90;;;;;;5016221;28;20351;-66
2022/05/25 05:17:59;;;;;;;5.07;2.15;;;14.80;99.90;;;;;;5033563;28;20161;-69
2022/05/25 05:20:25;;;;;;;2.95;2.22;;;14.70;99.90;;;;;;5033961;28;20464;-65
2022/05/25 05:22:50;;;;;;;3.80;1.77;;;14.70;99.90;;;;;;5033790;28;20484;-66
2022/05/25 05:25:16;;;;;;;3.13;1.42;;;14.80;99.90;;;;;;5015507;28;20065;-65
2022/05/25 05:27:42;;;;;;;3.17;1.38;;;14.50;99.90;;;;;;5015607;28;20037;-67
2022/05/25 05:30:12;;;;;;;6.50;1.88;;;14.50;99.90;;;;;;5033143;28;20049;-67
2022/05/25 05:32:37;;;;;;;3.85;1.45;;;14.50;99.90;;;;;;5016134;28;20072;-67
2022/05/25 05:35:03;;;;;;;2.78;1.73;;;14.80;99.90;;;;;;5033037;28;20470;-67
2022/05/25 05:37:35;;;;;;;3.50;1.30;;;14.80;99.90;;;;;;5015947;28;20045;-67
2022/05/25 05:40:04;;;;;;;4.32;1.60;;;14.90;99.90;;;;;;5033028;28;20029;-67
2022/05/25 05:42:30;;;;;;;6.63;1.98;;;15.00;99.90;;;;;;5033339;28;20048;-66
2022/05/25 05:45:03;;;;;;;6.28;1.55;;;15.10;99.90;;;;;;5015410;28;20041;-67
2022/05/25 05:47:36;;;;;;;8.65;1.40;;;15.20;99.90;;;;;;5014544;28;20463;-67
2022/05/25 05:50:05;;;;;;;3.45;1.25;;;15.30;99.90;;;;;;5032889;28;20033;-67
2022/05/25 05:52:34;;;;;;;2.70;1.58;;;15.20;99.90;;;;;;5015200;28;20037;-69
2022/05/25 05:55:01;;;;;;;2.72;1.15;;;15.20;99.90;;;;;;5032942;28;20097;-72
2022/05/25 05:57:27;;;;;;;6.10;1.60;;;15.40;99.90;;;;;;5031863;28;20111;-69
2022/05/25 05:59:53;;;;;;;3.85;1.20;;;15.40;99.90;;;;;;5028026;28;20037;-70
2022/05/25 06:02:19;;;;;;;2.88;1.20;;;15.50;99.90;;;;;;5028068;28;20422;-70
2022/05/25 06:04:45;;;;;;;7.50;1.58;;;15.70;99.90;;;;;;5008532;28;20044;-70
2022/05/25 06:07:11;;;;;;;4.15;1.48;;;15.60;99.90;;;;;;5027572;28;20053;-69
2022/05/25 06:09:36;;;;;;;4.00;1.27;;;15.50;99.90;;;;;;5028170;28;20437;-73
2022/05/25 06:12:02;;;;;;;4.45;1.20;;;15.70;99.90;;;;;;5009128;28;20115;-72
2022/05/25 06:14:28;;;;;;;6.85;1.23;;;15.60;99.90;;;;;;5028302;28;20071;-68
2022/05/25 06:19:38;;;;;;;3.03;1.30;;;15.60;99.90;;;;;;5027986;28;20478;-71
2022/05/25 06:22:10;;;;;;;6.10;1.52;;;15.60;99.90;;;;;;5010631;28;20053;-71
2022/05/25 06:24:39;;;;;;;1.55;1.00;;;15.90;99.90;;;;;;5015136;28;20479;-68
2022/05/25 06:27:08;;;;;;;1.77;0.93;;;15.90;99.90;;;;;;5014995;28;20099;-69
2022/05/25 06:29:35;;;;;;;4.88;1.42;;;16.00;99.90;;;;;;5014473;28;20042;-68
2022/05/25 06:32:01;;;;;;;5.13;1.50;;;16.00;99.90;;;;;;5014364;28;20044;-68
2022/05/25 06:34:27;;;;;;;4.53;1.15;;;16.00;99.90;;;;;;5032096;28;20037;-68
2022/05/25 06:36:52;;;;;;;4.38;1.52;;;16.00;99.90;;;;;;5032245;28;20160;-68
2022/05/25 06:39:18;;;;;;;4.95;1.80;;;16.10;99.90;;;;;;5031599;28;20029;-67
2022/05/25 06:41:44;;;;;;;1.80;0.93;;;16.00;99.90;;;;;;4998386;28;20042;-71
2022/05/25 06:44:09;;;;;;;2.97;1.40;;;15.90;99.90;;;;;;5014098;28;20197;-68
2022/05/25 06:46:35;;;;;;;7.10;1.42;;;15.90;99.90;;;;;;5014646;28;20052;-68
2022/05/25 06:49:01;;;;;;;7.70;1.70;;;16.10;99.90;;;;;;5032187;28;20414;-68
2022/05/25 06:51:30;;;;;;;1.48;1.00;;;16.30;99.90;;;;;;5030803;28;20037;-70
2022/05/25 06:53:56;;;;;;;3.10;0.75;;;16.30;99.90;;;;;;5031644;28;20487;-69
2022/05/25 06:56:24;;;;;;;5.63;1.85;;;16.30;99.90;;;;;;5012645;28;20113;-71
2022/05/25 06:58:51;;;;;;;2.85;1.15;;;16.30;99.90;;;;;;5013828;28;20060;-70
2022/05/25 07:01:17;;;;;;;2.30;0.75;;;16.20;99.90;;;;;;5013339;28;20044;-70
2022/05/25 07:03:43;;;;;;;3.05;1.10;;;16.40;99.90;;;;;;5031593;28;20041;-68
2022/05/25 07:06:12;;;;;;;2.65;0.90;;;16.60;99.60;;;;;;5031157;28;20046;-70
2022/05/25 07:08:38;;;;;;;2.60;1.00;;;16.60;99.50;;;;;;5031537;28;20026;-70
2022/05/25 07:11:04;;;;;;;6.18;1.10;;;16.70;99.30;;;;;;5032083;28;20073;-70
2022/05/25 07:13:30;;;;;;;23.65;1.65;;;16.80;99.40;;;;;;5013712;28;20044;-72
2022/05/25 07:16:05;;;;;;;5.50;1.20;;;16.90;99.30;;;;;;5031281;28;20120;-68
2022/05/25 07:18:31;;;;;;;3.38;0.93;;;16.80;98.30;;;;;;5031777;28;20036;-57
2022/05/25 07:21:03;;;;;;;1.52;0.60;;;16.60;98.50;;;;;;5031559;28;20424;-70
2022/05/25 07:23:31;;;;;;;5.13;0.88;;;16.70;98.70;;;;;;5030797;28;20073;-71
2022/05/25 07:25:57;;;;;;;4.45;0.80;;;16.80;98.70;;;;;;5013571;28;20109;-69
2022/05/25 07:28:23;;;;;;;5.65;0.90;;;17.00;98.70;;;;;;5030725;28;20493;-69
2022/05/25 07:30:52;;;;;;;2.67;0.73;;;17.20;98.40;;;;;;5030974;28;20446;-69
2022/05/25 07:33:17;;;;;;;3.50;0.80;;;17.40;98.10;;;;;;5031020;28;20037;-69
2022/05/25 07:35:43;;;;;;;5.15;0.52;;;17.50;98.10;;;;;;5031576;28;20036;-70
2022/05/25 07:38:10;;;;;;;2.55;0.70;;;17.70;97.60;;;;;;5030823;28;20049;-70
2022/05/25 07:40:39;;;;;;;2.40;0.55;;;17.80;97.20;;;;;;5030968;28;20026;-70
2022/05/25 07:43:11;;;;;;;4.05;0.85;;;17.90;97.40;;;;;;5013283;28;20045;-70
2022/05/25 07:45:37;;;;;;;6.57;1.55;;;18.10;97.70;;;;;;5031113;28;20049;-69
2022/05/25 07:48:03;;;;;;;2.53;0.80;;;17.90;97.10;;;;;;5013333;28;20033;-69
2022/05/25 07:50:29;;;;;;;3.95;1.00;;;17.80;96.90;;;;;;5030274;28;20156;-69
2022/05/25 07:52:58;;;;;;;4.00;0.77;;;17.80;97.00;;;;;;5030876;28;20470;-69
2022/05/25 07:55:24;;;;;;;3.92;1.63;;;17.90;96.80;;;;;;5030334;28;20037;-69
2022/05/25 07:57:50;;;;;;;2.92;0.77;;;18.10;97.10;;;;;;5030826;28;20438;-71
2022/05/25 08:00:19;;;;;;;4.13;0.80;;;18.30;96.50;;;;;;5030126;28;20419;-69
2022/05/25 08:05:44;;;;;;;3.70;0.70;;;18.40;94.70;;;;;;5030561;28;20121;-71
2022/05/25 08:08:18;;;;;;;1.52;0.43;;;18.60;95.20;;;;;;5030489;28;20057;-72
2022/05/25 08:10:49;;;;;;;2.97;0.50;;;18.90;94.40;;;;;;5014003;28;20033;-71
2022/05/25 08:13:17;;;;;;;2.10;0.52;;;19.20;94.20;;;;;;5030575;28;20434;-71
2022/05/25 08:15:44;;;;;;;3.28;0.60;;;19.30;94.10;;;;;;5013533;28;20120;-70
2022/05/25 08:18:11;;;;;;;3.08;0.47;;;19.80;94.20;;;;;;5012728;28;20071;-70
2022/05/25 08:20:37;;;;;;;3.67;0.43;;;20.10;92.80;;;;;;5013112;28;20471;-69
2022/05/25 08:23:09;;;;;;;1.88;0.70;;;20.20;92.80;;;;;;5013118;28;20128;-68
2022/05/25 08:25:35;;;;;;;;;;;20.30;92.50;;;;;;5031224;28;20117;-70
2022/05/25 08:28:02;;;;;;;4.45;0.60;;;20.60;92.60;;;;;;5030243;28;20378;-69
2022/05/25 08:30:29;;;;;;;4.25;1.35;;;20.60;92.30;;;;;;5029927;28;20030;-71
2022/05/25 08:32:55;;;;;;;6.00;0.60;;;20.50;92.70;;;;;;5030892;28;20041;-70
2022/05/25 08:35:21;;;;;;;3.00;0.82;;;20.70;92.30;;;;;;5030206;28;20080;-70
2022/05/25 08:37:47;;;;;;;1.30;0.63;;;21.10;91.60;;;;;;5012766;28;20128;-70
2022/05/25 08:40:17;;;;;;;1.52;0.40;;;21.00;91.60;;;;;;5030247;28;20620;-70
2022/05/25 08:43:18;;;;;;;2.93;0.80;;;20.80;91.10;;;;;;5012625;28;20094;-68
2022/05/25 08:45:53;;;;;;;6.07;0.93;;;20.90;93.40;;;;;;5012966;28;20065;-69
2022/05/25 08:48:21;;;;;;;5.50;0.80;;;21.30;92.00;;;;;;5029939;28;20044;-69
2022/05/25 08:50:54;;;;;;;5.30;0.63;;;21.50;91.10;;;;;;5030370;28;20387;-68
2022/05/25 08:53:24;;;;;;;4.38;1.23;;;21.60;91.20;;;;;;5012046;28;20367;-67
2022/05/25 08:56:15;;;;;;;13.63;1.75;;;21.90;90.60;;;;;;5012741;28;20034;-69
2022/05/25 08:58:46;;;;;;;4.22;1.10;;;21.90;93.40;;;;;;5030222;28;20426;-69
2022/05/25 09:01:19;;;;;;;4.97;0.80;;;22.30;94.10;;;;;;5009051;28;20034;-71
2022/05/25 09:04:14;;;;;;;1.10;0.50;;;22.00;90.50;;;;;;5025101;28;20567;-71
2022/05/25 09:07:00;;;;;;;2.15;0.30;;;21.50;88.00;;;;;;5006583;28;20294;-71
2022/05/25 09:09:40;;;;;;;3.20;0.52;;;21.40;88.20;;;;;;5006063;28;20033;-72
2022/05/25 09:12:29;;;;;;;1.95;0.73;;;21.50;88.60;;;;;;5025334;28;20045;-70
2022/05/25 09:15:30;;;;;;;4.35;0.65;;;21.20;88.20;;;;;;5021365;28;20129;-70
2022/05/25 09:18:04;;;;;;;1.48;0.50;;;22.00;87.00;;;;;;5007766;28;20041;-70
2022/05/25 09:20:48;;;;;;;2.28;0.40;;;21.80;85.50;;;;;;5024406;28;20060;-71
2022/05/25 09:26:36;;;;;;;0.77;0.40;;;22.60;85.10;;;;;;5025144;28;20103;-70
2022/05/25 09:29:07;;;;;;;2.55;0.30;;;21.90;84.20;;;;;;5025186;28;20045;-70
2022/05/25 09:31:44;;;;;;;0.80;0.50;;;21.70;83.70;;;;;;4999038;28;20042;-71
2022/05/25 09:34:42;;;;;;;3.10;0.50;;;21.30;84.20;;;;;;4988336;28;20067;-70
2022/05/25 09:37:34;;;;;;;0.93;0.30;;;21.70;84.00;;;;;;4970731;28;20046;-70
2022/05/25 09:40:19;;;;;;;1.70;0.68;;;21.60;84.00;;;;;;4991335;28;20164;-69
2022/05/25 09:42:53;;;;;;;5.78;0.50;;;21.40;84.90;;;;;;5009166;28;20046;-69
2022/05/25 09:45:19;;;;;;;0.45;0.30;;;22.40;83.90;;;;;;4991848;28;20049;-71
2022/05/25 09:47:48;;;;;;;2.83;0.30;;;22.40;82.20;;;;;;4997042;28;20034;-70
2022/05/25 09:50:31;;;;;;;0.43;0.22;;;22.40;79.60;;;;;;4996237;28;20442;-73
2022/05/25 09:53:05;;;;;;;1.90;0.40;;;22.50;80.10;;;;;;4995921;28;20561;-71
2022/05/25 09:55:45;;;;;;;1.10;0.20;;;22.70;79.10;;;;;;4995448;28;20137;-70
2022/05/25 09:58:22;;;;;;;1.88;0.22;;;22.70;79.00;;;;;;4995878;28;20034;-69
2022/05/25 10:00:51;;;;;;;1.83;0.50;;;22.30;78.90;;;;;;5013163;28;20061;-60
2022/05/25 10:03:43;;;;;;;0.95;0.17;;;22.70;79.80;;;;;;4994800;28;20149;-60
2022/05/25 10:06:20;;;;;;;3.30;0.52;;;23.00;78.50;;;;;;5013139;28;20066;-59
2022/05/25 10:08:51;;;;;;;0.57;0.20;;;23.40;79.00;;;;;;5013434;28;20034;-60
2022/05/25 10:11:35;;;;;;;2.08;0.40;;;23.50;80.40;;;;;;5012521;28;20038;-59
2022/05/25 10:14:37;;;;;;;3.15;0.30;;;24.00;81.90;;;;;;5013234;28;20062;-59
2022/05/25 10:17:35;;;;;;;2.63;0.32;;;24.10;77.90;;;;;;5013687;28;20141;-58
2022/05/25 10:20:24;;;;;;;1.85;0.68;;;24.40;74.90;;;;;;4990094;28;20034;-59
2022/05/25 10:23:11;;;;;;;3.38;0.38;;;24.00;77.60;;;;;;5013047;28;20037;-59
2022/05/25 10:25:44;;;;;;;3.50;0.60;;;24.10;76.50;;;;;;4994368;28;20124;-59
2022/05/25 10:28:21;;;;;;;1.10;0.25;;;24.00;74.20;;;;;;5028158;28;20529;-59
2022/05/25 10:36:56;;;;;;;1.20;0.38;;;25.10;78.20;;;;;;5029596;28;20394;-60
2022/05/25 10:39:27;;;;;;;2.13;0.20;;;25.40;72.70;;;;;;5031439;28;20038;-59
2022/05/25 10:42:05;;;;;;;;;;;25.30;71.20;;;;;;5013364;28;20037;-60
2022/05/25 10:45:21;;;;;;;2.40;0.22;;;25.30;72.20;;;;;;5028239;28;20414;-60
2022/05/25 10:47:54;;;;;;;0.63;0.20;;;25.20;73.00;;;;;;4975534;28;20037;-59
2022/05/25 10:50:45;;;;;;;2.05;0.50;;;24.90;74.30;;;;;;5030194;28;20037;-59
2022/05/25 10:53:35;;;;;;;3.28;0.63;;;24.80;73.40;;;;;;5031580;28;20082;-59
2022/05/25 10:56:00;;;;;;;2.15;0.52;;;24.40;73.80;;;;;;5013599;28;20116;-59
2022/05/25 10:58:48;;;;;;;2.13;0.55;;;23.90;74.00;;;;;;5029336;28;20542;-59
2022/05/25 11:01:42;;;;;;;4.30;0.60;;;24.30;75.40;;;;;;5028952;28;20512;-58
2022/05/25 11:04:30;;;;;;;2.95;0.50;;;24.70;72.20;;;;;;5030718;28;20033;-59
2022/05/25 11:07:23;;;;;;;3.20;0.45;;;24.20;76.10;;;;;;5147824;27;20450;-60
2022/05/25 11:10:13;;;;;;;1.67;0.70;;;23.80;72.20;;;;;;5166684;27;20427;-60
2022/05/25 11:16:26;;;;;;;1.25;0.38;;;24.50;72.00;;;;;;5127223;22;20085;-61
2022/05/25 11:19:59;;;;;;;1.08;0.17;;;25.00;72.50;;;;;;5079055;28;20028;-60
2022/05/25 11:22:47;;;;;;;3.28;0.20;;;24.70;75.40;;;;;;4991993;28;20034;-61
2022/05/25 11:25:37;;;;;;;0.63;0.13;;;24.80;71.70;;;;;;5092569;28;20044;-60
2022/05/25 11:28:21;;;;;;;3.38;0.43;;;24.60;71.90;;;;;;5068672;28;20017;-60
2022/05/25 11:31:20;;;;;;;4.13;0.40;;;24.80;73.80;;;;;;5063155;28;20020;-61
2022/05/25 11:34:00;;;;;;;3.42;0.63;;;24.90;72.50;;;;;;5087825;28;20032;-61
2022/05/25 11:36:50;;;;;;;1.90;0.28;;;25.30;71.10;;;;;;5057075;28;20029;-60
2022/05/25 11:39:31;;;;;;;3.40;0.30;;;25.40;67.20;;;;;;5077428;28;20035;-60
2022/05/25 11:42:15;;;;;;;2.30;0.40;;;25.20;70.40;;;;;;5099203;28;20117;-58
2022/05/25 11:45:03;;;;;;;4.57;0.40;;;25.50;69.60;;;;;;5062904;28;20441;-59
2022/05/25 11:47:54;;;;;;;3.65;0.30;;;25.40;71.30;;;;;;5087365;28;20111;-60
2022/05/25 11:50:34;;;;;;;1.17;0.20;;;25.50;69.00;;;;;;5076614;28;20060;-60
2022/05/25 11:53:24;;;;;;;5.63;0.40;;;26.20;69.20;;;;;;5049433;28;20071;-60
2022/05/25 11:56:11;;;;;;;1.30;0.30;;;26.10;69.60;;;;;;5049295;28;20132;-61
2022/05/25 11:59:16;;;;;;;2.92;0.47;;;26.10;68.40;;;;;;5054079;28;20332;-60
2022/05/25 12:01:56;;;;;;;1.45;0.20;;;25.90;67.30;;;;;;5055112;28;20384;-61
2022/05/25 12:04:56;;;;;;;1.08;0.30;;;25.70;66.70;;;;;;5090262;28;20025;-60
2022/05/25 12:07:53;;;;;;;2.88;0.30;;;25.80;67.70;;;;;;5081289;28;20061;-61
2022/05/25 12:10:40;;;;;;;3.83;0.40;;;25.70;69.00;;;;;;5035114;28;20422;-62
2022/05/25 12:13:15;;;;;;;2.08;0.45;;;25.60;66.60;;;;;;5079959;28;20380;-60
2022/05/25 12:16:02;;;;;;;1.05;0.17;;;25.90;65.80;;;;;;5067632;28;20513;-60
2022/05/25 12:18:41;;;;;;;1.25;0.20;;;26.00;64.80;;;;;;5071632;28;20016;-60
2022/05/25 12:21:13;;;;;;;3.65;0.50;;;26.20;64.80;;;;;;5052846;28;20037;-60
2022/05/25 12:24:00;;;;;;;4.88;0.38;;;26.20;65.20;;;;;;5050062;28;20025;-61
2022/05/25 12:26:30;;;;;;;2.58;0.20;;;26.20;65.60;;;;;;5046465;28;20048;-60
2022/05/25 12:29:11;;;;;;;2.38;0.30;;;26.00;64.10;;;;;;5061943;28;20339;-61
2022/05/25 12:31:37;;;;;;;2.78;0.75;;;26.20;65.80;;;;;;5061791;28;20029;-60
2022/05/25 12:34:04;;;;;;;4.72;0.60;;;26.10;64.80;;;;;;5048892;28;20040;-59
2022/05/25 12:36:31;;;;;;;2.42;0.10;;;25.70;65.60;;;;;;5047133;28;20458;-61
2022/05/25 12:38:58;;;;;;;3.50;0.30;;;25.30;64.90;;;;;;5053997;28;20074;-61
2022/05/25 12:41:31;;;;;;;4.35;0.20;;;25.20;67.10;;;;;;5049227;28;20025;-61
2022/05/25 12:48:30;;;;;;;0.50;0.17;;;25.20;65.60;;;;;;5048451;28;20036;-63
2022/05/25 12:49:42;;;;;;;0.65;0.05;;;25.20;66.70;;;;;;5066428;28;20168;-60
2022/05/25 12:52:26;;;;;;;1.58;0.10;;;24.90;65.70;;;;;;5054904;28;20034;-60
2022/05/25 12:54:53;;;;;;;0.65;0.20;;;24.60;63.60;;;;;;5072195;28;20390;-61
2022/05/25 12:57:34;;;;;;;3.63;0.10;;;24.40;64.00;;;;;;5072490;28;20024;-61
2022/05/25 13:00:15;;;;;;;0.77;0.20;;;24.60;65.00;;;;;;5068936;28;20102;-60
2022/05/25 13:02:40;;;;;;;4.15;0.40;;;25.10;63.10;;;;;;5067607;28;20028;-61
2022/05/25 13:05:08;;;;;;;1.80;0.10;;;25.20;63.00;;;;;;5067427;28;20039;-60
2022/05/25 13:07:44;;;;;;;2.28;0.55;;;24.70;65.20;;;;;;5064676;28;20031;-63
2022/05/25 13:10:45;;;;;;;2.90;0.32;;;24.60;65.30;;;;;;5066327;28;20386;-60
2022/05/25 13:13:41;;;;;;;0.85;0.10;;;24.70;64.20;;;;;;5039781;28;20131;-60
2022/05/25 13:16:07;;;;;;;4.05;0.70;;;24.70;63.60;;;;;;5049728;28;20064;-60
2022/05/25 13:18:54;;;;;;;2.75;0.15;;;25.00;63.30;;;;;;5048430;28;20325;-61
2022/05/25 13:21:39;;;;;;;3.90;0.40;;;25.20;62.40;;;;;;5049093;28;20051;-61
2022/05/25 13:24:32;;;;;;;2.42;0.30;;;25.00;65.30;;;;;;5071941;28;20040;-61
2022/05/25 13:27:26;;;;;;;4.97;0.30;;;25.20;63.20;;;;;;5067251;28;20093;-61
2022/05/25 13:30:23;;;;;;;2.33;0.20;;;25.00;63.00;;;;;;5057126;28;20041;-61
2022/05/25 13:33:04;;;;;;;3.97;0.20;;;24.90;62.90;;;;;;5065835;28;20035;-60
2022/05/25 13:35:42;;;;;;;;;;;24.90;63.20;;;;;;5063974;28;20064;-60
2022/05/25 13:38:23;;;;;;;2.08;0.30;;;24.90;64.00;;;;;;5070328;28;19980;-68
2022/05/25 13:40:55;;;;;;;3.22;0.25;;;25.00;65.00;;;;;;5053593;28;20024;-65
2022/05/25 13:43:42;;;;;;;1.42;0.35;;;25.00;63.00;;;;;;5053865;28;20082;-66
2022/05/25 13:46:13;;;;;;;4.30;0.30;;;25.00;64.70;;;;;;5070660;28;20040;-65
2022/05/25 13:48:50;;;;;;;2.10;0.30;;;25.00;62.80;;;;;;5070651;28;20032;-66
2022/05/25 13:51:19;;;;;;;2.05;0.10;;;24.50;64.50;;;;;;5036853;28;20081;-66
2022/05/25 13:53:44;;;;;;;4.22;1.13;;;24.20;64.90;;;;;;5071386;28;20032;-66
2022/05/25 13:56:13;;;;;;;4.95;0.32;;;24.30;66.70;;;;;;5071564;28;20040;-63
2022/05/25 13:58:46;;;;;;;0.40;0.20;;;24.60;64.40;;;;;;5053902;28;20024;-63
2022/05/25 14:01:18;;;;;;;1.52;0.17;;;24.80;63.90;;;;;;5053752;28;20102;-61
2022/05/25 14:03:50;;;;;;;2.97;0.60;;;24.40;64.30;;;;;;5053307;28;20542;-62
2022/05/25 14:06:16;;;;;;;0.63;0.10;;;24.40;63.70;;;;;;5053662;28;20056;-62
2022/05/25 14:11:43;;;;;;;1.05;0.17;;;24.60;63.00;;;;;;5069791;28;20039;-63
2022/05/25 14:14:21;;;;;;;0.57;0.10;;;24.30;63.10;;;;;;5049576;28;20029;-64
2022/05/25 14:17:01;;;;;;;0.45;0.10;;;24.40;63.30;;;;;;5046102;28;20114;-64
2022/05/25 14:19:33;;;;;;;2.00;0.10;;;24.90;63.90;;;;;;5047872;28;20055;-64
2022/05/25 14:22:07;;;;;;;4.20;0.35;;;24.60;63.50;;;;;;5066594;28;20303;-63
2022/05/25 14:24:40;;;;;;;7.80;0.95;;;24.10;63.40;;;;;;5047826;28;20195;-64
2022/05/25 14:27:16;;;;;;;3.72;0.28;;;24.10;63.70;;;;;;5066947;28;20044;-65
2022/05/25 14:29:43;;;;;;;0.80;0.10;;;24.30;63.90;;;;;;5066216;28;20029;-63
2022/05/25 14:32:28;;;;;;;2.85;0.10;;;24.40;62.20;;;;;;5066553;28;20031;-63
2022/05/25 14:34:57;;;;;;;1.35;0.20;;;24.40;62.80;;;;;;5066056;28;20492;-64
2022/05/25 14:37:27;;;;;;;4.05;0.10;;;24.90;62.40;;;;;;5047855;28;20020;-65
2022/05/25 14:39:57;;;;;;;1.13;0.10;;;24.90;62.10;;;;;;5047883;28;20058;-64
2022/05/25 14:42:28;;;;;;;4.55;0.20;;;24.70;61.90;;;;;;5037658;28;20113;-64
2022/05/25 14:45:03;;;;;;;2.35;0.40;;;24.70;63.30;;;;;;5049673;28;20039;-63
2022/05/25 14:47:35;;;;;;;1.75;0.22;;;24.50;62.50;;;;;;5042016;28;20028;-63
2022/05/25 14:50:22;;;;;;;2.35;0.35;;;24.30;62.70;;;;;;5053215;28;20036;-62
2022/05/25 14:53:06;;;;;;;1.67;0.10;;;24.20;62.60;;;;;;5071460;28;20031;-61
2022/05/25 14:55:52;;;;;;;4.28;0.32;;;24.20;62.50;;;;;;5052480;28;20024;-58
